Time;durP1;ratioP1;P1;durP2;ratioP2;P2;SDS_P1;SDS_P2;PMS_P1;PMS_P2;Temp;Humidity;BMP_temperature;BMP_pressure;BME280_temperature;BME280_humidity;BME280_pressure;Samples;Min_cycle;Max_cycle;Signal;HPM_P1;HPM_P2
2022/10/17 00:03:57;;;;;;;5.17;1.70;;;;;;;;;;8265242;28;20042;-63
2022/10/17 00:07:58;;;;;;;6.07;2.00;;;;;;;;;;8265373;28;20095;-63
2022/10/17 00:11:58;;;;;;;3.55;1.88;;;;;;;;;;8264085;28;20026;-63
2022/10/17 00:15:58;;;;;;;5.13;1.83;;;;;;;;;;8264190;28;20068;-63
2022/10/17 00:19:59;;;;;;;1.98;1.60;;;;;;;;;;8264924;28;20033;-63
2022/10/17 00:23:59;;;;;;;2.47;1.80;;;;;;;;;;8264650;28;20830;-63
2022/10/17 00:28:00;;;;;;;3.58;1.80;;;;;;;;;;8268063;28;20092;-63
2022/10/17 00:32:00;;;;;;;3.67;1.80;;;;;;;;;;8262194;28;20044;-64
2022/10/17 00:36:20;;;;;;;4.05;1.65;;;;;;;;;;8263463;28;20069;-63
2022/10/17 00:40:20;;;;;;;6.47;2.08;;;;;;;;;;8263998;28;20109;-63
2022/10/17 00:44:30;;;;;;;4.43;1.80;;;;;;;;;;8264127;28;20045;-63
2022/10/17 00:48:30;;;;;;;4.70;1.90;;;;;;;;;;8264595;28;20860;-63
2022/10/17 00:52:31;;;;;;;5.10;2.00;;;;;;;;;;8262990;28;20084;-63
2022/10/17 00:56:31;;;;;;;9.18;2.00;;;;;;;;;;8262450;28;20485;-63
2022/10/17 01:00:31;;;;;;;4.68;1.75;;;;;;;;;;8263491;28;20045;-63
2022/10/17 01:04:32;;;;;;;6.25;2.17;;;;;;;;;;8262976;28;20537;-63
2022/10/17 01:08:32;;;;;;;5.57;1.73;;;;;;;;;;8262493;28;20490;-63
2022/10/17 01:12:35;;;;;;;6.47;1.90;;;;;;;;;;8260646;28;20651;-63
2022/10/17 01:16:58;;;;;;;2.00;1.60;;;;;;;;;;8264658;28;20045;-63
2022/10/17 01:20:58;;;;;;;8.98;1.85;;;;;;;;;;8264932;28;20841;-63
2022/10/17 01:25:11;;;;;;;4.28;1.88;;;;;;;;;;8263791;28;20026;-63
2022/10/17 01:29:30;;;;;;;4.95;1.80;;;;;;;;;;8260928;28;20041;-63
2022/10/17 01:33:50;;;;;;;6.10;2.22;;;;;;;;;;8262150;28;20432;-63
2022/10/17 01:37:54;;;;;;;4.38;1.90;;;;;;;;;;8261020;28;20040;-63
2022/10/17 01:41:59;;;;;;;8.25;2.40;;;;;;;;;;8262089;28;20356;-63
2022/10/17 01:46:06;;;;;;;4.65;2.10;;;;;;;;;;8261588;28;20038;-63
2022/10/17 01:50:10;;;;;;;6.32;2.33;;;;;;;;;;8259816;28;20671;-63
2022/10/17 01:54:13;;;;;;;6.70;2.47;;;;;;;;;;8262769;28;20064;-63
2022/10/17 01:58:19;;;;;;;6.22;2.20;;;;;;;;;;8260524;28;20546;-63
2022/10/17 02:02:19;;;;;;;4.35;2.00;;;;;;;;;;8262615;28;20061;-62
2022/10/17 02:06:20;;;;;;;8.27;2.00;;;;;;;;;;8259862;28;20025;-63
2022/10/17 02:10:29;;;;;;;4.85;2.30;;;;;;;;;;8259623;28;20018;-62
2022/10/17 02:14:32;;;;;;;4.35;2.05;;;;;;;;;;8261384;28;20096;-63
2022/10/17 02:18:51;;;;;;;4.15;2.25;;;;;;;;;;8260862;28;20604;-63
2022/10/17 02:22:55;;;;;;;4.20;1.92;;;;;;;;;;8259556;28;20030;-63
2022/10/17 02:27:02;;;;;;;3.67;2.03;;;;;;;;;;8259777;28;20053;-63
2022/10/17 02:31:05;;;;;;;6.22;1.77;;;;;;;;;;8260951;28;20604;-63
2022/10/17 02:35:07;;;;;;;6.67;2.10;;;;;;;;;;8261300;28;20084;-63
2022/10/17 02:39:08;;;;;;;6.32;2.50;;;;;;;;;;8261068;28;20552;-63
2022/10/17 02:43:08;;;;;;;5.85;1.98;;;;;;;;;;8260110;28;20018;-62
2022/10/17 02:47:32;;;;;;;3.90;2.20;;;;;;;;;;8262085;28;20026;-63
2022/10/17 02:51:55;;;;;;;5.00;2.90;;;;;;;;;;8264592;28;20033;-63
2022/10/17 02:55:57;;;;;;;2.30;2.00;;;;;;;;;;8262723;28;20041;-63
2022/10/17 02:59:59;;;;;;;3.60;1.98;;;;;;;;;;8265657;28;20126;-63
2022/10/17 03:04:07;;;;;;;5.70;2.28;;;;;;;;;;8265358;28;20295;-62
2022/10/17 03:08:07;;;;;;;5.75;2.20;;;;;;;;;;8268255;28;20029;-63
2022/10/17 03:12:07;;;;;;;7.25;2.10;;;;;;;;;;8267751;28;20055;-63
2022/10/17 03:16:07;;;;;;;6.28;2.40;;;;;;;;;;8268319;28;20399;-63
2022/10/17 03:20:08;;;;;;;8.63;2.35;;;;;;;;;;8265893;28;20518;-63
2022/10/17 03:24:08;;;;;;;7.45;2.50;;;;;;;;;;8267414;28;20060;-63
2022/10/17 03:28:10;;;;;;;5.07;1.80;;;;;;;;;;8266591;28;20470;-63
2022/10/17 03:32:10;;;;;;;4.45;2.20;;;;;;;;;;8266149;28;20510;-63
2022/10/17 03:36:12;;;;;;;5.88;2.20;;;;;;;;;;8263987;28;20032;-63
2022/10/17 03:40:12;;;;;;;5.00;2.25;;;;;;;;;;8265065;28;20301;-63
2022/10/17 03:44:12;;;;;;;3.45;2.08;;;;;;;;;;8266951;28;20017;-63
2022/10/17 03:48:12;;;;;;;4.90;2.67;;;;;;;;;;8264953;28;20065;-62
2022/10/17 03:52:12;;;;;;;3.97;2.15;;;;;;;;;;8265612;28;20026;-63
2022/10/17 03:56:13;;;;;;;6.55;2.00;;;;;;;;;;8266004;28;20512;-63
2022/10/17 04:00:13;;;;;;;4.85;2.10;;;;;;;;;;8265462;28;20576;-63
2022/10/17 04:04:13;;;;;;;5.30;2.05;;;;;;;;;;8265793;28;20014;-63
2022/10/17 04:08:14;;;;;;;3.97;2.40;;;;;;;;;;8264850;28;20052;-62
2022/10/17 04:12:14;;;;;;;6.50;2.35;;;;;;;;;;8263544;28;20030;-62
2022/10/17 04:16:15;;;;;;;8.02;2.63;;;;;;;;;;8264523;28;20038;-63
2022/10/17 04:20:16;;;;;;;3.78;2.28;;;;;;;;;;8263729;28;20497;-62
2022/10/17 04:24:16;;;;;;;7.90;2.47;;;;;;;;;;8265663;28;20025;-63
2022/10/17 04:28:16;;;;;;;3.75;2.20;;;;;;;;;;8264313;28;20470;-63
2022/10/17 04:32:16;;;;;;;4.55;2.17;;;;;;;;;;8263397;28;20092;-63
2022/10/17 04:36:17;;;;;;;2.53;2.13;;;;;;;;;;8264590;28;20080;-63
2022/10/17 04:40:17;;;;;;;3.63;2.10;;;;;;;;;;8266291;28;20108;-63
2022/10/17 04:44:19;;;;;;;2.53;2.08;;;;;;;;;;8264958;28;20566;-63
2022/10/17 04:48:19;;;;;;;3.42;1.98;;;;;;;;;;8263703;28;20437;-63
2022/10/17 04:52:20;;;;;;;3.40;2.20;;;;;;;;;;8263044;28;20514;-63
2022/10/17 04:56:21;;;;;;;3.87;2.10;;;;;;;;;;8263341;28;20665;-62
2022/10/17 05:00:21;;;;;;;5.00;2.10;;;;;;;;;;8263648;28;20465;-63
2022/10/17 05:04:21;;;;;;;3.08;2.08;;;;;;;;;;8263615;28;20514;-63
2022/10/17 05:08:21;;;;;;;3.70;2.22;;;;;;;;;;8265034;28;20026;-63
2022/10/17 05:12:22;;;;;;;7.18;2.40;;;;;;;;;;8260245;28;20080;-63
2022/10/17 05:16:22;;;;;;;6.78;2.20;;;;;;;;;;8260897;28;20044;-63
2022/10/17 05:20:23;;;;;;;7.13;2.20;;;;;;;;;;8259424;28;20544;-62
2022/10/17 05:24:23;;;;;;;6.45;2.70;;;;;;;;;;8262602;28;20623;-62
2022/10/17 05:28:23;;;;;;;3.65;2.30;;;;;;;;;;8259908;28;20091;-63
2022/10/17 05:32:23;;;;;;;4.85;2.17;;;;;;;;;;8258430;28;20439;-63
2022/10/17 05:36:23;;;;;;;5.85;2.42;;;;;;;;;;8259777;28;20045;-63
2022/10/17 05:40:24;;;;;;;4.15;2.50;;;;;;;;;;8258350;28;20017;-63
2022/10/17 05:44:24;;;;;;;6.80;2.70;;;;;;;;;;8259776;28;20813;-63
2022/10/17 05:48:24;;;;;;;7.13;2.40;;;;;;;;;;8257607;28;20308;-63
2022/10/17 05:52:24;;;;;;;7.53;2.50;;;;;;;;;;8258945;28;20110;-63
2022/10/17 05:56:25;;;;;;;5.72;2.47;;;;;;;;;;8260037;28;20575;-63
2022/10/17 06:00:25;;;;;;;4.03;2.42;;;;;;;;;;8258910;28;20049;-63
2022/10/17 06:04:26;;;;;;;9.93;6.07;;;;;;;;;;8259178;28;20022;-63
2022/10/17 06:08:26;;;;;;;8.35;3.30;;;;;;;;;;8259636;28;20678;-63
2022/10/17 06:12:27;;;;;;;6.73;3.20;;;;;;;;;;8258263;28;20183;-63
2022/10/17 06:16:27;;;;;;;6.97;4.45;;;;;;;;;;8258030;28;20037;-63
2022/10/17 06:20:27;;;;;;;8.43;3.72;;;;;;;;;;8262554;28;20549;-63
2022/10/17 06:24:27;;;;;;;9.50;3.95;;;;;;;;;;8260084;28;20400;-63
2022/10/17 06:28:28;;;;;;;5.17;2.80;;;;;;;;;;8261810;28;20034;-63
2022/10/17 06:32:28;;;;;;;5.13;2.97;;;;;;;;;;8260121;28;20030;-63
2022/10/17 06:36:28;;;;;;;4.18;3.15;;;;;;;;;;8263520;28;20263;-63
2022/10/17 06:40:29;;;;;;;15.55;7.82;;;;;;;;;;8260833;28;20483;-63
2022/10/17 06:44:30;;;;;;;10.32;4.32;;;;;;;;;;8260215;28;20061;-63
2022/10/17 06:48:31;;;;;;;3.75;2.63;;;;;;;;;;8261295;28;20478;-63
2022/10/17 06:52:31;;;;;;;5.45;2.80;;;;;;;;;;8260765;28;20076;-63
2022/10/17 06:56:31;;;;;;;5.57;2.90;;;;;;;;;;8260886;28;20032;-63
2022/10/17 07:00:31;;;;;;;5.63;2.60;;;;;;;;;;8258740;28;20042;-63
2022/10/17 07:04:31;;;;;;;4.38;2.60;;;;;;;;;;8261604;28;20530;-64
2022/10/17 07:08:32;;;;;;;5.55;2.00;;;;;;;;;;8261392;28;20491;-62
2022/10/17 07:12:32;;;;;;;5.43;3.70;;;;;;;;;;8261090;28;20099;-63
2022/10/17 07:16:32;;;;;;;12.43;2.90;;;;;;;;;;8260372;28;20128;-63
2022/10/17 07:20:33;;;;;;;5.18;2.60;;;;;;;;;;8258841;28;20044;-63
2022/10/17 07:24:33;;;;;;;8.25;2.42;;;;;;;;;;8261296;28;20536;-63
2022/10/17 07:28:37;;;;;;;3.17;2.00;;;;;;;;;;8260889;28;20036;-63
2022/10/17 07:32:37;;;;;;;2.90;2.40;;;;;;;;;;8260752;28;20544;-63
2022/10/17 07:36:38;;;;;;;4.15;1.70;;;;;;;;;;8260040;28;20030;-64
2022/10/17 07:40:38;;;;;;;5.03;2.07;;;;;;;;;;8258272;28;20026;-62
2022/10/17 07:44:38;;;;;;;6.30;1.95;;;;;;;;;;8264431;28;20334;-62
2022/10/17 07:48:38;;;;;;;3.50;1.42;;;;;;;;;;8265566;28;20095;-61
2022/10/17 07:52:39;;;;;;;6.07;1.90;;;;;;;;;;8266351;28;20064;-62
2022/10/17 07:56:39;;;;;;;3.77;1.77;;;;;;;;;;8264168;28;20057;-61
2022/10/17 08:00:39;;;;;;;2.22;1.70;;;;;;;;;;8265786;28;20056;-61
2022/10/17 08:04:39;;;;;;;2.05;1.63;;;;;;;;;;8265049;28;20077;-62
2022/10/17 08:08:40;;;;;;;5.85;1.60;;;;;;;;;;8267983;28;20092;-61
2022/10/17 08:12:41;;;;;;;4.30;1.60;;;;;;;;;;8263933;28;20048;-61
2022/10/17 08:16:41;;;;;;;2.97;1.73;;;;;;;;;;8264187;28;20490;-61
2022/10/17 08:20:41;;;;;;;3.87;1.30;;;;;;;;;;8266116;28;20372;-62
2022/10/17 08:24:42;;;;;;;7.47;1.55;;;;;;;;;;8264677;28;20620;-62
2022/10/17 08:28:42;;;;;;;3.25;1.30;;;;;;;;;;8265171;28;20037;-62
2022/10/17 08:32:42;;;;;;;4.17;2.03;;;;;;;;;;8263567;28;20037;-61
2022/10/17 08:36:42;;;;;;;7.20;2.30;;;;;;;;;;8263795;28;20279;-62
2022/10/17 08:40:43;;;;;;;5.78;1.80;;;;;;;;;;8266174;28;20043;-62
2022/10/17 08:44:52;;;;;;;5.20;1.70;;;;;;;;;;8266135;28;20026;-62
2022/10/17 08:48:52;;;;;;;6.68;2.13;;;;;;;;;;8262919;28;20066;-62
2022/10/17 08:52:55;;;;;;;3.07;1.93;;;;;;;;;;8264867;28;20029;-62
2022/10/17 08:56:56;;;;;;;3.60;2.33;;;;;;;;;;8263668;28;20025;-62
2022/10/17 09:01:12;;;;;;;4.93;2.08;;;;;;;;;;8262820;28;20045;-62
2022/10/17 09:05:18;;;;;;;5.63;2.00;;;;;;;;;;8262212;28;20969;-62
2022/10/17 09:09:24;;;;;;;7.32;2.10;;;;;;;;;;8262634;28;20036;-62
2022/10/17 09:13:45;;;;;;;7.00;1.60;;;;;;;;;;8263372;28;20018;-62
2022/10/17 09:17:51;;;;;;;5.43;1.70;;;;;;;;;;8263253;28;20076;-62
2022/10/17 09:21:52;;;;;;;3.65;1.60;;;;;;;;;;8262046;28;20072;-61
2022/10/17 09:25:53;;;;;;;6.03;1.45;;;;;;;;;;8262406;28;20508;-62
2022/10/17 09:29:57;;;;;;;4.65;1.40;;;;;;;;;;8261907;28;20148;-62
2022/10/17 09:33:59;;;;;;;5.25;1.50;;;;;;;;;;8260592;28;20156;-62
2022/10/17 09:37:59;;;;;;;3.27;1.57;;;;;;;;;;8263490;28;20026;-62
2022/10/17 09:42:00;;;;;;;3.50;1.77;;;;;;;;;;8261432;28;20370;-62
2022/10/17 09:46:03;;;;;;;5.38;1.88;;;;;;;;;;8262869;28;20041;-63
2022/10/17 09:50:07;;;;;;;5.00;1.77;;;;;;;;;;8260999;28;20326;-62
2022/10/17 09:54:17;;;;;;;3.03;1.60;;;;;;;;;;8262545;28;20046;-62
2022/10/17 09:58:19;;;;;;;5.05;1.60;;;;;;;;;;8261747;28;20136;-62
2022/10/17 10:02:21;;;;;;;5.07;1.63;;;;;;;;;;8257862;28;20380;-62
2022/10/17 10:06:21;;;;;;;5.07;1.50;;;;;;;;;;8267378;28;20049;-62
2022/10/17 10:10:22;;;;;;;3.70;1.50;;;;;;;;;;8268531;28;20032;-62
2022/10/17 10:14:27;;;;;;;5.72;1.60;;;;;;;;;;8266910;28;20112;-62
2022/10/17 10:18:28;;;;;;;3.65;1.70;;;;;;;;;;8270676;28;20069;-62
2022/10/17 10:22:28;;;;;;;4.68;1.65;;;;;;;;;;8266878;28;20030;-62
2022/10/17 10:26:35;;;;;;;3.40;1.42;;;;;;;;;;8268622;28;20502;-62
2022/10/17 10:30:35;;;;;;;3.30;1.45;;;;;;;;;;8266886;28;20136;-62
2022/10/17 10:34:38;;;;;;;3.35;1.38;;;;;;;;;;8267849;28;20057;-62
2022/10/17 10:38:39;;;;;;;2.90;1.30;;;;;;;;;;8268808;28;20194;-62
2022/10/17 10:42:39;;;;;;;4.95;1.52;;;;;;;;;;8268125;28;20050;-62
2022/10/17 10:46:40;;;;;;;3.63;1.50;;;;;;;;;;8266813;28;20038;-62
2022/10/17 10:50:48;;;;;;;3.03;1.70;;;;;;;;;;8269255;28;20033;-62
2022/10/17 10:54:52;;;;;;;5.43;1.58;;;;;;;;;;8265501;28;20038;-62
2022/10/17 10:58:56;;;;;;;7.55;1.88;;;;;;;;;;8275227;28;20022;-62
2022/10/17 11:03:05;;;;;;;4.65;1.70;;;;;;;;;;8267682;28;20048;-62
2022/10/17 11:07:08;;;;;;;5.20;2.00;;;;;;;;;;8266049;28;20018;-62
2022/10/17 11:11:28;;;;;;;4.30;1.67;;;;;;;;;;8269455;28;20022;-63
2022/10/17 11:15:28;;;;;;;5.03;1.80;;;;;;;;;;8270308;28;20045;-63
2022/10/17 11:19:48;;;;;;;3.00;1.70;;;;;;;;;;8273149;28;20052;-62
2022/10/17 11:24:00;;;;;;;4.05;1.70;;;;;;;;;;8274305;28;20466;-62
2022/10/17 11:28:17;;;;;;;3.92;1.60;;;;;;;;;;8272439;28;20051;-62
2022/10/17 11:32:21;;;;;;;6.45;1.85;;;;;;;;;;8273473;28;21099;-63
2022/10/17 11:36:24;;;;;;;5.88;2.00;;;;;;;;;;8272315;28;20029;-62
2022/10/17 11:40:28;;;;;;;3.00;1.75;;;;;;;;;;8272764;28;20026;-62
2022/10/17 11:44:34;;;;;;;5.75;1.75;;;;;;;;;;8273109;28;20029;-63
2022/10/17 11:48:38;;;;;;;6.68;1.90;;;;;;;;;;8273049;28;20033;-63
2022/10/17 11:52:42;;;;;;;7.30;1.80;;;;;;;;;;8271845;28;20413;-62
2022/10/17 11:56:50;;;;;;;4.40;1.95;;;;;;;;;;8272512;28;20367;-62
2022/10/17 12:01:08;;;;;;;4.95;1.90;;;;;;;;;;8273016;28;20045;-62
2022/10/17 12:05:09;;;;;;;4.30;1.90;;;;;;;;;;8272542;28;20334;-62
2022/10/17 12:09:14;;;;;;;4.88;1.90;;;;;;;;;;8272808;28;20086;-62
2022/10/17 12:13:27;;;;;;;6.18;2.20;;;;;;;;;;8272698;28;20114;-62
2022/10/17 12:17:38;;;;;;;7.07;2.20;;;;;;;;;;8271924;28;21034;-62
2022/10/17 12:21:56;;;;;;;5.15;1.80;;;;;;;;;;8272549;28;20319;-63
2022/10/17 12:26:00;;;;;;;3.85;1.50;;;;;;;;;;8272068;28;20116;-63
2022/10/17 12:30:01;;;;;;;2.88;1.70;;;;;;;;;;8269693;28;20038;-63
2022/10/17 12:34:02;;;;;;;9.07;1.85;;;;;;;;;;8269790;28;20034;-63
2022/10/17 12:38:12;;;;;;;6.72;2.28;;;;;;;;;;8280237;28;20119;-63
2022/10/17 12:42:28;;;;;;;5.45;2.05;;;;;;;;;;8271998;28;20117;-63
2022/10/17 12:46:48;;;;;;;5.72;1.90;;;;;;;;;;8270694;28;20676;-63
2022/10/17 12:51:00;;;;;;;3.92;2.15;;;;;;;;;;8270990;28;20018;-64
2022/10/17 12:55:03;;;;;;;3.50;1.83;;;;;;;;;;8270334;28;20505;-63
2022/10/17 12:59:08;;;;;;;6.05;1.73;;;;;;;;;;8271286;28;20447;-63
2022/10/17 13:03:13;;;;;;;3.33;2.00;;;;;;;;;;8269765;28;20041;-62
2022/10/17 13:07:20;;;;;;;3.15;1.83;;;;;;;;;;8270383;28;20021;-63
2022/10/17 13:11:22;;;;;;;7.40;1.92;;;;;;;;;;8273038;28;20805;-62
2022/10/17 13:15:23;;;;;;;4.40;1.85;;;;;;;;;;8269896;28;20045;-62
2022/10/17 13:19:24;;;;;;;5.13;1.80;;;;;;;;;;8268418;28;20025;-62
2022/10/17 13:23:25;;;;;;;5.50;2.00;;;;;;;;;;8270020;28;20516;-62
2022/10/17 13:27:27;;;;;;;6.07;1.70;;;;;;;;;;8268894;28;20033;-62
2022/10/17 13:31:29;;;;;;;7.68;2.08;;;;;;;;;;8269437;28;20391;-62
2022/10/17 13:35:31;;;;;;;6.27;1.90;;;;;;;;;;8271360;28;20025;-62
2022/10/17 13:39:38;;;;;;;9.15;1.98;;;;;;;;;;8269393;28;20025;-62
2022/10/17 13:43:38;;;;;;;6.85;2.00;;;;;;;;;;8270234;28;20026;-62
2022/10/17 13:47:38;;;;;;;4.97;2.00;;;;;;;;;;8269371;28;20336;-62
2022/10/17 13:51:41;;;;;;;6.53;2.30;;;;;;;;;;8269212;28;20458;-63
2022/10/17 13:55:52;;;;;;;6.32;2.00;;;;;;;;;;8271365;28;20276;-62
2022/10/17 13:59:59;;;;;;;7.93;2.08;;;;;;;;;;8268577;28;20107;-62
2022/10/17 14:03:59;;;;;;;6.38;1.88;;;;;;;;;;8267733;28;20127;-63
2022/10/17 14:08:01;;;;;;;8.65;2.05;;;;;;;;;;8269122;28;20029;-62
2022/10/17 14:12:01;;;;;;;7.32;2.08;;;;;;;;;;8268105;28;20029;-62
2022/10/17 14:16:02;;;;;;;3.60;1.90;;;;;;;;;;8270130;28;20251;-62
2022/10/17 14:20:03;;;;;;;11.80;2.15;;;;;;;;;;8268821;28;20091;-62
2022/10/17 14:24:25;;;;;;;6.07;1.80;;;;;;;;;;8267613;28;20594;-62
2022/10/17 14:28:25;;;;;;;5.20;1.73;;;;;;;;;;8269389;28;20088;-62
2022/10/17 14:32:27;;;;;;;7.53;2.25;;;;;;;;;;8266968;28;20049;-63
2022/10/17 14:36:32;;;;;;;7.13;1.88;;;;;;;;;;8267397;28;20034;-63
2022/10/17 14:40:33;;;;;;;8.43;2.05;;;;;;;;;;8267612;28;20059;-63
2022/10/17 14:44:34;;;;;;;6.82;1.98;;;;;;;;;;8268805;28;20390;-63
2022/10/17 14:48:35;;;;;;;8.98;1.90;;;;;;;;;;8265093;28;20191;-62
2022/10/17 14:52:37;;;;;;;3.95;1.67;;;;;;;;;;8268728;28;20112;-62
2022/10/17 14:56:41;;;;;;;5.10;1.90;;;;;;;;;;8268530;28;20033;-62
2022/10/17 15:00:41;;;;;;;5.63;2.00;;;;;;;;;;8269324;28;20277;-62
2022/10/17 15:04:41;;;;;;;10.25;2.03;;;;;;;;;;8268216;28;20033;-62
2022/10/17 15:08:42;;;;;;;7.13;1.90;;;;;;;;;;8267005;28;20014;-62
2022/10/17 15:12:42;;;;;;;7.03;1.90;;;;;;;;;;8266829;28;20025;-62
2022/10/17 15:16:42;;;;;;;6.70;2.00;;;;;;;;;;8263862;28;20077;-62
2022/10/17 15:20:42;;;;;;;6.47;1.92;;;;;;;;;;8258636;28;20136;-62
2022/10/17 15:24:45;;;;;;;5.03;1.85;;;;;;;;;;8262381;28;20488;-62
2022/10/17 15:28:46;;;;;;;10.43;2.00;;;;;;;;;;8261157;28;20319;-62
2022/10/17 15:32:46;;;;;;;4.22;1.70;;;;;;;;;;8260834;28;20443;-62
2022/10/17 15:36:48;;;;;;;4.72;1.88;;;;;;;;;;8260560;28;20029;-62
2022/10/17 15:40:50;;;;;;;8.88;1.98;;;;;;;;;;8259448;28;20466;-62
2022/10/17 15:44:51;;;;;;;6.80;1.83;;;;;;;;;;8263109;28;20021;-62
2022/10/17 15:48:52;;;;;;;3.55;1.80;;;;;;;;;;8259717;28;20502;-63
2022/10/17 15:52:52;;;;;;;6.88;2.00;;;;;;;;;;8261293;28;20450;-62
2022/10/17 15:56:53;;;;;;;6.18;2.00;;;;;;;;;;8260175;28;20030;-62
2022/10/17 16:00:53;;;;;;;8.80;2.00;;;;;;;;;;8260480;28;20049;-62
2022/10/17 16:04:54;;;;;;;7.30;1.85;;;;;;;;;;8262450;28;20032;-63
2022/10/17 16:08:54;;;;;;;5.88;1.92;;;;;;;;;;8266588;28;20398;-63
2022/10/17 16:12:55;;;;;;;5.97;1.85;;;;;;;;;;8265339;28;20103;-63
2022/10/17 16:16:55;;;;;;;5.18;2.15;;;;;;;;;;8265897;28;20034;-62
2022/10/17 16:20:55;;;;;;;6.68;1.95;;;;;;;;;;8267400;28;20029;-62
2022/10/17 16:24:58;;;;;;;5.28;1.80;;;;;;;;;;8266336;28;20107;-63
2022/10/17 16:29:01;;;;;;;5.60;2.07;;;;;;;;;;8266303;28;20026;-63
2022/10/17 16:33:01;;;;;;;8.30;2.15;;;;;;;;;;8262425;28;20045;-62
2022/10/17 16:37:01;;;;;;;8.70;2.35;;;;;;;;;;8263286;28;20025;-62
2022/10/17 16:41:02;;;;;;;9.73;2.33;;;;;;;;;;8264878;28;20075;-62
2022/10/17 16:45:02;;;;;;;6.70;2.20;;;;;;;;;;8266064;28;20038;-62
2022/10/17 16:49:06;;;;;;;7.20;2.00;;;;;;;;;;8264054;28;20065;-62
2022/10/17 16:53:06;;;;;;;6.65;2.25;;;;;;;;;;8264618;28;20104;-63
2022/10/17 16:57:07;;;;;;;3.67;1.83;;;;;;;;;;8266014;28;20066;-62
2022/10/17 17:01:11;;;;;;;7.72;2.08;;;;;;;;;;8264237;28;20285;-63
2022/10/17 17:05:12;;;;;;;6.78;1.98;;;;;;;;;;8264168;28;20052;-63
2022/10/17 17:09:12;;;;;;;5.57;1.88;;;;;;;;;;8262912;28;20017;-63
2022/10/17 17:13:12;;;;;;;8.65;1.95;;;;;;;;;;8263624;28;20454;-62
2022/10/17 17:17:13;;;;;;;7.00;2.33;;;;;;;;;;8263383;28;20099;-62
2022/10/17 17:21:13;;;;;;;4.47;2.10;;;;;;;;;;8261403;28;20104;-62
2022/10/17 17:25:13;;;;;;;10.83;5.50;;;;;;;;;;8263127;28;20028;-63
2022/10/17 17:29:13;;;;;;;5.90;3.03;;;;;;;;;;8263683;28;20606;-63
2022/10/17 17:33:13;;;;;;;13.48;2.80;;;;;;;;;;8262270;28;20495;-63
2022/10/17 17:37:14;;;;;;;5.37;2.17;;;;;;;;;;8262653;28;20048;-62
2022/10/17 17:41:15;;;;;;;4.70;2.13;;;;;;;;;;8263375;28;20056;-63
2022/10/17 17:45:15;;;;;;;5.35;2.13;;;;;;;;;;8262200;28;20571;-63
2022/10/17 17:49:15;;;;;;;7.43;2.30;;;;;;;;;;8263336;28;20682;-63
2022/10/17 17:53:16;;;;;;;5.85;2.00;;;;;;;;;;8261935;28;20087;-63
2022/10/17 17:57:16;;;;;;;8.60;1.80;;;;;;;;;;8263420;28;20021;-63
2022/10/17 18:01:20;;;;;;;8.60;1.88;;;;;;;;;;8263036;28;20415;-63
2022/10/17 18:05:20;;;;;;;;;;;;;;;;;;8262588;28;20116;-63
2022/10/17 18:09:20;;;;;;;6.53;2.03;;;;;;;;;;8263253;28;19967;-63
2022/10/17 18:13:20;;;;;;;9.32;1.90;;;;;;;;;;8262264;28;20026;-63
2022/10/17 18:17:21;;;;;;;5.87;2.00;;;;;;;;;;8262946;28;20033;-63
2022/10/17 18:21:21;;;;;;;5.95;2.00;;;;;;;;;;8262061;28;20995;-63
2022/10/17 18:25:21;;;;;;;5.05;2.50;;;;;;;;;;8259864;28;20092;-63
2022/10/17 18:29:21;;;;;;;6.57;1.98;;;;;;;;;;8263266;28;20509;-63
2022/10/17 18:33:22;;;;;;;6.93;2.28;;;;;;;;;;8260838;28;20045;-63
2022/10/17 18:37:22;;;;;;;9.05;2.30;;;;;;;;;;8260664;28;20068;-62
2022/10/17 18:41:23;;;;;;;4.20;2.00;;;;;;;;;;8260802;28;20033;-63
2022/10/17 18:45:23;;;;;;;8.10;2.20;;;;;;;;;;8260746;28;20827;-63
2022/10/17 18:49:24;;;;;;;9.77;2.50;;;;;;;;;;8261434;28;20415;-63
2022/10/17 18:53:24;;;;;;;8.05;2.25;;;;;;;;;;8260610;28;20018;-64
2022/10/17 18:57:24;;;;;;;6.55;2.40;;;;;;;;;;8259505;28;20139;-63
2022/10/17 19:01:25;;;;;;;6.80;2.40;;;;;;;;;;8259880;28;20076;-63
2022/10/17 19:05:25;;;;;;;4.00;2.13;;;;;;;;;;8260966;28;20395;-63
2022/10/17 19:09:26;;;;;;;7.28;2.28;;;;;;;;;;8258903;28;20025;-63
2022/10/17 19:13:26;;;;;;;8.38;2.53;;;;;;;;;;8261725;28;20029;-63
2022/10/17 19:17:26;;;;;;;5.70;2.35;;;;;;;;;;8262025;28;20312;-63
2022/10/17 19:21:26;;;;;;;9.68;2.80;;;;;;;;;;8259572;28;20173;-63
2022/10/17 19:25:29;;;;;;;5.30;2.50;;;;;;;;;;8260149;28;20084;-63
2022/10/17 19:29:32;;;;;;;8.40;2.30;;;;;;;;;;8261035;28;20025;-63
2022/10/17 19:33:33;;;;;;;6.68;2.10;;;;;;;;;;8260006;28;20562;-62
2022/10/17 19:37:33;;;;;;;6.70;2.08;;;;;;;;;;8261313;28;20426;-63
2022/10/17 19:41:35;;;;;;;5.72;2.10;;;;;;;;;;8267204;28;20028;-63
2022/10/17 19:45:35;;;;;;;7.03;2.25;;;;;;;;;;8265278;28;20064;-63
2022/10/17 19:49:35;;;;;;;6.45;2.47;;;;;;;;;;8267264;28;20037;-63
2022/10/17 19:53:36;;;;;;;7.57;2.30;;;;;;;;;;8264654;28;20033;-62
2022/10/17 19:57:36;;;;;;;9.88;2.42;;;;;;;;;;8265305;28;20487;-62
2022/10/17 20:01:40;;;;;;;7.82;2.70;;;;;;;;;;8265464;28;20496;-62
2022/10/17 20:05:40;;;;;;;5.85;2.38;;;;;;;;;;8263005;28;20128;-63
2022/10/17 20:09:40;;;;;;;9.38;2.50;;;;;;;;;;8267697;28;20546;-62
2022/10/17 20:13:41;;;;;;;7.38;2.58;;;;;;;;;;8266086;28;20030;-62
2022/10/17 20:17:41;;;;;;;5.15;3.00;;;;;;;;;;8264588;28;20041;-62
2022/10/17 20:21:42;;;;;;;8.18;2.75;;;;;;;;;;8267325;28;20057;-63
2022/10/17 20:25:42;;;;;;;10.50;2.80;;;;;;;;;;8265147;28;20430;-63
2022/10/17 20:29:42;;;;;;;8.75;2.80;;;;;;;;;;8266346;28;20593;-63
2022/10/17 20:33:43;;;;;;;5.93;2.72;;;;;;;;;;8263699;28;20157;-63
2022/10/17 20:37:43;;;;;;;5.40;2.03;;;;;;;;;;8264699;28;20094;-62
2022/10/17 20:41:44;;;;;;;5.85;2.50;;;;;;;;;;8262680;28;20033;-63
2022/10/17 20:45:54;;;;;;;5.00;2.42;;;;;;;;;;8283293;28;20041;-63
2022/10/17 20:49:54;;;;;;;7.97;2.40;;;;;;;;;;8268955;28;20485;-63
2022/10/17 20:53:55;;;;;;;7.45;2.40;;;;;;;;;;8270293;28;20139;-63
2022/10/17 20:57:55;;;;;;;5.18;2.65;;;;;;;;;;8271828;28;20034;-63
2022/10/17 21:01:55;;;;;;;6.25;2.90;;;;;;;;;;8270336;28;20050;-63
2022/10/17 21:05:56;;;;;;;8.82;3.60;;;;;;;;;;8270995;28;20029;-63
2022/10/17 21:09:56;;;;;;;9.15;3.83;;;;;;;;;;8270504;28;20075;-62
2022/10/17 21:14:00;;;;;;;12.20;5.15;;;;;;;;;;8270791;28;20065;-62
2022/10/17 21:18:00;;;;;;;10.23;4.90;;;;;;;;;;8270579;28;20739;-62
2022/10/17 21:22:01;;;;;;;13.70;6.10;;;;;;;;;;8269602;28;20030;-63
2022/10/17 21:26:02;;;;;;;9.88;4.22;;;;;;;;;;8269502;28;20900;-63
2022/10/17 21:30:03;;;;;;;7.57;3.53;;;;;;;;;;8270662;28;20038;-63
2022/10/17 21:34:04;;;;;;;6.63;3.50;;;;;;;;;;8271293;28;20028;-63
2022/10/17 21:38:04;;;;;;;5.35;2.60;;;;;;;;;;8269897;28;20116;-63
2022/10/17 21:42:04;;;;;;;8.43;2.80;;;;;;;;;;8271253;28;20525;-63
2022/10/17 21:46:06;;;;;;;7.40;2.40;;;;;;;;;;8268216;28;20088;-63
2022/10/17 21:50:06;;;;;;;7.40;2.70;;;;;;;;;;8270754;28;20026;-63
2022/10/17 21:54:07;;;;;;;8.43;2.50;;;;;;;;;;8268773;28;20028;-63
2022/10/17 21:58:07;;;;;;;6.75;2.60;;;;;;;;;;8270846;28;20529;-63
2022/10/17 22:02:07;;;;;;;6.13;2.60;;;;;;;;;;8268920;28;20550;-62
2022/10/17 22:06:08;;;;;;;5.55;2.50;;;;;;;;;;8269204;28;20024;-62
2022/10/17 22:10:08;;;;;;;8.57;2.60;;;;;;;;;;8270353;28;20053;-62
2022/10/17 22:14:12;;;;;;;4.78;2.50;;;;;;;;;;8268427;28;20108;-62
2022/10/17 22:18:12;;;;;;;5.30;2.78;;;;;;;;;;8267916;28;20598;-62
2022/10/17 22:22:12;;;;;;;4.67;2.40;;;;;;;;;;8269923;28;20554;-63
2022/10/17 22:26:13;;;;;;;4.70;2.67;;;;;;;;;;8266406;28;20745;-63
2022/10/17 22:30:13;;;;;;;4.57;2.42;;;;;;;;;;8269810;28;20091;-63
2022/10/17 22:34:14;;;;;;;5.57;2.60;;;;;;;;;;8270097;28;20029;-62
2022/10/17 22:38:15;;;;;;;6.45;2.40;;;;;;;;;;8270475;28;20025;-63
2022/10/17 22:42:15;;;;;;;5.87;3.03;;;;;;;;;;8270631;28;20534;-62
2022/10/17 22:46:15;;;;;;;5.55;2.33;;;;;;;;;;8268255;28;20261;-63
2022/10/17 22:50:16;;;;;;;4.93;2.20;;;;;;;;;;8268271;28;20107;-63
2022/10/17 22:54:16;;;;;;;6.93;2.47;;;;;;;;;;8268406;28;20017;-63
2022/10/17 22:58:16;;;;;;;3.75;2.28;;;;;;;;;;8270101;28;20052;-63
2022/10/17 23:02:16;;;;;;;5.18;2.40;;;;;;;;;;8266020;28;20030;-63
2022/10/17 23:06:17;;;;;;;10.30;2.35;;;;;;;;;;8269737;28;20061;-63
2022/10/17 23:10:17;;;;;;;7.15;2.30;;;;;;;;;;8266495;28;20029;-63
2022/10/17 23:14:17;;;;;;;9.35;2.28;;;;;;;;;;8270867;28;20072;-63
2022/10/17 23:18:17;;;;;;;11.77;2.50;;;;;;;;;;8272969;28;21054;-63
2022/10/17 23:22:18;;;;;;;4.47;2.00;;;;;;;;;;8275033;28;20028;-63
2022/10/17 23:26:18;;;;;;;9.93;2.30;;;;;;;;;;8274312;28;21223;-63
2022/10/17 23:30:18;;;;;;;6.00;2.35;;;;;;;;;;8273973;28;20661;-63
2022/10/17 23:34:19;;;;;;;5.07;2.25;;;;;;;;;;8275064;28;20030;-63
2022/10/17 23:38:19;;;;;;;3.63;2.40;;;;;;;;;;8274647;28;20188;-63
2022/10/17 23:42:19;;;;;;;7.60;2.92;;;;;;;;;;8273160;28;20030;-63
2022/10/17 23:46:19;;;;;;;6.43;2.78;;;;;;;;;;8272647;28;20065;-63
2022/10/17 23:50:19;;;;;;;5.40;2.80;;;;;;;;;;8273738;28;20163;-63
2022/10/17 23:54:19;;;;;;;5.35;2.65;;;;;;;;;;8274520;28;20037;-63
2022/10/17 23:58:20;;;;;;;6.38;2.85;;;;;;;;;;8274812;28;20080;-63
